Airfield :
LOGIN :

Register | Disclaimer

   EN    FR    IT 

 










Legend :    VFR   Marginal VFR   IFR   Intensive IFR   Very Intensive IFR
Visi :
Ceiling :
>= 8 km
>= 3000ft
5 to 8 km
1000 to 3000 ft
1500m to 5 km
500 to 1000 ft
800 to 1500m
200 to 500 ft
< 800m
< 200 ft
Symbols :   Thunderstorms  Fog  Heavy snow  Heavy precipitations  Wind > 20 kt
SIGMETs :     Misc.  Thunderstorms  Icing  Turbulence  Mountain Waves  Volcanic Ashes






- Airport Elevation : 242 ft
- IATA code : DUB


EIDW - Dublin

CURRENT METAR :
  • 270500Z 29010KT 9999 FEW004 BKN006 01/M00 Q0999 NOSIG

EXPIRED METARs :
  • 270430Z 30011KT 9999 SCT004 BKN006 01/01 Q0999 NOSIG
  • 270400Z 29009KT 9999 FEW005 SCT040 01/00 Q0999 NOSIG
  • 270330Z 28009KT 9999 FEW012 SCT040 01/00 Q0999 NOSIG
  • 270300Z 28008KT 9999 FEW012 SCT020 BKN070 02/01 Q0999 NOSIG

TAF TAF EIDW
Valid from the 27 at 06:00 until the 28 at 06:00 UTC


270500Z 2706/2806 30010KT 9999 FEW018 BKN030
TEMPO 2706/2710 5000 BR BKN005
TEMPO 2713/2716 29015G26KT
BECMG 2720/2723 20007KT
BECMG 2800/2802 16010KT BKN014
TEMPO 2804/2806 16015KT 5000 -RA BKN007



MET'MAP, your aeronautical weather chart ! - Copyright ORBIFLY December 2007 - Disclaimer

ORBIFLY MET'MAP TEAM :

Programming & Development : Alexandra Zaïnal
Concept & original design : Baudouin d'Aumeries
Assistance for programming : Marc-Olivier Méhu
Technical & hardware support : Manuel Goepfert

Contact : metmap@orbifly.com




SOURCES & CREDITS :

   NOAA